Terminal Aerodrome Forecast
Issued by NWS

Home | Current Version | Previous Version | Text Only | Print | Product List | Glossary On
Versions: 1 2 3 4 5 6 7 8 9 10 11 12 13 14 15 16
000
FTUS43 KICT 140522
TAFCNU
TAF
KCNU 140522Z 1406/1506 18007KT P6SM FEW200
     FM141400 19012G21KT P6SM BKN200
     FM141800 19016G25KT P6SM VCTS BKN200CB
     FM150000 21015G23KT P6SM SHRA VCTS OVC090CB
     FM150200 28015G23KT 6SM SHRA VCTS OVC050CB
     FM150300 30016KT 5SM SHRA OVC060=

USA.gov is the U.S. government's official web portal to all federal, state and local government web resources and services.